Time;durP1;ratioP1;P1;durP2;ratioP2;P2;SDS_P1;SDS_P2;PMS_P1;PMS_P2;Temp;Humidity;BMP_temperature;BMP_pressure;BME280_temperature;BME280_humidity;BME280_pressure;Samples;Min_cycle;Max_cycle;Signal;HPM_P1;HPM_P2
2022/01/21 00:01:37;;;;;;;14.30;3.70;;;1.60;99.90;;;;;;5065992;28;20040;-75
2022/01/21 00:04:03;;;;;;;18.27;4.35;;;1.60;99.90;;;;;;5060134;28;20448;-74
2022/01/21 00:06:29;;;;;;;14.13;4.07;;;1.50;99.90;;;;;;5101747;28;20040;-74
2022/01/21 00:08:55;;;;;;;27.33;4.47;;;1.50;99.90;;;;;;5065097;28;20040;-74
2022/01/21 00:11:23;;;;;;;18.00;5.30;;;1.50;99.90;;;;;;5065358;28;20049;-74
2022/01/21 00:13:49;;;;;;;14.70;4.40;;;1.50;99.90;;;;;;5099104;28;20048;-74
2022/01/21 00:16:21;;;;;;;18.25;4.47;;;1.50;99.90;;;;;;5061955;28;20048;-74
2022/01/21 00:19:14;;;;;;;22.25;4.07;;;1.50;99.90;;;;;;5065679;28;20119;-74
2022/01/21 00:32:49;;;;;;;19.00;4.65;;;1.40;99.90;;;;;;5051104;28;20118;-74
2022/01/21 00:35:16;;;;;;;22.10;5.63;;;1.40;99.90;;;;;;5062527;28;20041;-74
2022/01/21 00:37:42;;;;;;;30.65;5.25;;;1.40;99.90;;;;;;5062112;28;20079;-74
2022/01/21 00:40:10;;;;;;;28.38;5.95;;;1.40;99.90;;;;;;5067856;28;20055;-74
2022/01/21 00:45:14;;;;;;;20.80;6.32;;;1.40;99.90;;;;;;5054470;28;20049;-74
2022/01/21 00:47:41;;;;;;;15.35;5.03;;;1.40;99.90;;;;;;5063568;28;20041;-74
2022/01/21 00:50:07;;;;;;;30.60;6.97;;;1.40;99.90;;;;;;5062373;28;20064;-74
2022/01/21 00:52:33;;;;;;;35.95;7.95;;;1.50;99.90;;;;;;5104737;27;20081;-74
2022/01/21 00:54:59;;;;;;;39.40;8.13;;;1.50;99.90;;;;;;5068288;28;20053;-75
2022/01/21 00:57:24;;;;;;;27.48;6.28;;;1.50;99.90;;;;;;5068634;28;20406;-75
2022/01/21 00:59:50;;;;;;;22.92;5.13;;;1.50;99.90;;;;;;5098811;27;20051;-74
2022/01/21 01:02:16;;;;;;;49.22;7.30;;;1.60;99.90;;;;;;5059306;28;20048;-74
2022/01/21 01:04:41;;;;;;;28.42;6.82;;;1.60;99.90;;;;;;5072351;28;20067;-75
2022/01/21 01:07:07;;;;;;;25.48;6.25;;;1.70;99.90;;;;;;5063721;28;20485;-75
2022/01/21 01:09:34;;;;;;;46.30;7.32;;;1.70;99.90;;;;;;5064955;28;20045;-75
2022/01/21 01:20:04;;;;;;;28.30;5.03;;;1.80;99.90;;;;;;5059547;28;20056;-76
2022/01/21 01:22:42;;;;;;;18.38;3.92;;;1.80;99.90;;;;;;5055331;28;20041;-75
2022/01/21 01:27:53;;;;;;;22.23;4.28;;;1.90;99.90;;;;;;5067790;28;20049;-75
2022/01/21 01:30:21;;;;;;;22.63;4.07;;;1.90;99.90;;;;;;5069094;28;20070;-75
2022/01/21 01:32:49;;;;;;;26.52;4.25;;;1.90;99.90;;;;;;5064179;28;20134;-74
2022/01/21 01:35:19;;;;;;;8.88;3.50;;;1.90;99.90;;;;;;5060965;28;20056;-75
2022/01/21 01:40:35;;;;;;;12.20;2.90;;;1.90;99.90;;;;;;5067999;28;20052;-74
2022/01/21 01:50:49;;;;;;;15.70;3.95;;;1.90;99.90;;;;;;5064183;28;20045;-74
2022/01/21 01:53:16;;;;;;;13.32;4.78;;;1.90;99.90;;;;;;5065802;28;20088;-74
2022/01/21 01:55:43;;;;;;;17.88;4.55;;;2.00;99.90;;;;;;5066779;28;20568;-75
2022/01/21 01:58:12;;;;;;;13.65;4.13;;;1.90;99.90;;;;;;5062668;28;20098;-74
2022/01/21 02:00:38;;;;;;;15.90;4.13;;;2.00;99.90;;;;;;5061616;28;20064;-75
2022/01/21 02:03:06;;;;;;;18.50;4.63;;;2.00;99.90;;;;;;5059441;28;20337;-75
2022/01/21 02:05:32;;;;;;;20.75;5.10;;;2.00;99.90;;;;;;5068322;28;20047;-75
2022/01/21 02:07:57;;;;;;;21.70;3.63;;;2.00;99.90;;;;;;5066063;28;20041;-75
2022/01/21 02:10:23;;;;;;;20.45;4.45;;;2.00;99.90;;;;;;5067763;28;20048;-75
2022/01/21 02:12:49;;;;;;;21.75;4.10;;;2.00;99.90;;;;;;5065976;28;20076;-74
2022/01/21 02:15:15;;;;;;;32.83;4.60;;;2.00;99.90;;;;;;5065073;28;20048;-74
2022/01/21 02:22:53;;;;;;;15.57;4.80;;;2.00;99.90;;;;;;5068386;28;20052;-74
2022/01/21 02:25:19;;;;;;;21.85;5.03;;;2.00;99.90;;;;;;5065372;28;20056;-74
2022/01/21 02:27:53;;;;;;;21.45;5.38;;;1.90;99.90;;;;;;5062526;28;20123;-74
2022/01/21 02:30:21;;;;;;;29.15;6.47;;;1.90;99.90;;;;;;5066173;28;20048;-74
2022/01/21 02:32:56;;;;;;;20.02;5.20;;;1.90;99.90;;;;;;5062447;28;20056;-74
2022/01/21 02:35:24;;;;;;;19.83;5.20;;;1.90;99.90;;;;;;5063830;28;20044;-74
2022/01/21 02:37:50;;;;;;;20.60;5.33;;;1.90;99.90;;;;;;5059857;28;20136;-74
2022/01/21 02:40:17;;;;;;;30.10;5.70;;;1.80;99.90;;;;;;5062623;28;20076;-74
2022/01/21 02:42:43;;;;;;;27.50;5.63;;;1.90;99.90;;;;;;5067422;28;20079;-74
2022/01/21 02:45:14;;;;;;;19.63;3.13;;;1.80;99.90;;;;;;5052097;28;20047;-74
2022/01/21 02:47:40;;;;;;;12.85;4.07;;;1.90;99.90;;;;;;5067277;28;20055;-74
2022/01/21 02:50:06;;;;;;;10.10;3.63;;;1.90;99.90;;;;;;5063018;28;20424;-74
2022/01/21 02:52:40;;;;;;;13.95;3.45;;;1.90;99.90;;;;;;5100344;27;20055;-74
2022/01/21 02:55:08;;;;;;;20.83;3.92;;;1.90;99.90;;;;;;5065035;28;20060;-74
2022/01/21 02:57:34;;;;;;;22.58;4.55;;;1.90;99.90;;;;;;5064966;28;20410;-75
2022/01/21 03:00:00;;;;;;;13.50;3.10;;;1.90;99.90;;;;;;5097739;28;20037;-75
2022/01/21 03:02:25;;;;;;;12.25;2.83;;;1.90;99.90;;;;;;5052927;28;20464;-75
2022/01/21 03:05:03;;;;;;;13.32;4.13;;;1.90;99.90;;;;;;5065018;28;20033;-75
2022/01/21 03:07:29;;;;;;;10.65;2.78;;;1.90;99.90;;;;;;5063378;28;20056;-75
2022/01/21 03:09:54;;;;;;;10.40;2.72;;;1.80;99.90;;;;;;5061907;28;20044;-74
2022/01/21 03:12:21;;;;;;;16.45;3.80;;;1.80;99.90;;;;;;5066699;28;20106;-75
2022/01/21 03:14:47;;;;;;;13.00;3.00;;;1.80;99.90;;;;;;5056863;28;20058;-75
2022/01/21 03:17:14;;;;;;;7.45;3.10;;;1.80;99.90;;;;;;5064035;28;20049;-74
2022/01/21 03:19:39;;;;;;;9.88;2.63;;;1.90;99.90;;;;;;5058234;28;20131;-75
2022/01/21 03:22:05;;;;;;;14.90;3.30;;;1.90;99.90;;;;;;5066489;28;20222;-75
2022/01/21 03:24:31;;;;;;;15.75;3.33;;;1.90;99.90;;;;;;5063610;28;20101;-75
2022/01/21 03:26:57;;;;;;;20.30;3.60;;;1.90;99.90;;;;;;5065046;28;20051;-75
2022/01/21 03:29:23;;;;;;;11.77;2.95;;;1.90;99.90;;;;;;5064961;28;20064;-75
2022/01/21 03:31:49;;;;;;;16.77;3.17;;;1.90;99.90;;;;;;5057921;28;20547;-75
2022/01/21 03:34:14;;;;;;;19.50;2.65;;;1.90;99.90;;;;;;5066171;28;20060;-75
2022/01/21 03:36:40;;;;;;;16.80;3.75;;;1.90;99.90;;;;;;5064229;28;20141;-75
2022/01/21 03:39:07;;;;;;;17.17;2.95;;;1.90;99.90;;;;;;5099483;28;20024;-75
2022/01/21 03:41:33;;;;;;;17.02;3.53;;;1.90;99.90;;;;;;5063415;28;20048;-75
2022/01/21 03:43:58;;;;;;;13.18;2.65;;;2.00;99.90;;;;;;5053590;28;20044;-75
2022/01/21 03:46:24;;;;;;;18.48;3.60;;;2.00;99.90;;;;;;5066675;28;20569;-74
2022/01/21 03:48:51;;;;;;;15.23;3.83;;;2.00;99.90;;;;;;5064540;28;20097;-74
2022/01/21 03:51:18;;;;;;;17.60;3.30;;;2.00;99.90;;;;;;5063171;28;20120;-75
2022/01/21 03:53:46;;;;;;;12.68;2.92;;;2.00;99.90;;;;;;5064102;28;20048;-75
2022/01/21 03:56:13;;;;;;;20.10;3.63;;;2.00;99.90;;;;;;5067731;28;20055;-75
2022/01/21 03:58:38;;;;;;;13.35;2.78;;;2.10;99.90;;;;;;5060511;28;20048;-75
2022/01/21 04:01:04;;;;;;;11.52;2.85;;;2.10;99.90;;;;;;5065605;28;20052;-75
2022/01/21 04:03:30;;;;;;;12.77;2.75;;;2.10;99.90;;;;;;5066486;28;20603;-75
2022/01/21 04:05:56;;;;;;;8.60;2.55;;;2.10;99.90;;;;;;5070279;28;20051;-75
2022/01/21 04:08:21;;;;;;;15.90;3.08;;;2.10;99.90;;;;;;5077686;28;20171;-74
2022/01/21 04:10:48;;;;;;;8.93;2.70;;;2.10;99.90;;;;;;5055886;28;20068;-74
2022/01/21 04:13:18;;;;;;;12.48;2.80;;;2.10;99.90;;;;;;5065889;28;20162;-75
2022/01/21 04:15:46;;;;;;;10.85;2.38;;;2.10;99.90;;;;;;5066816;28;20672;-74
2022/01/21 04:18:13;;;;;;;16.10;2.70;;;2.00;99.90;;;;;;5069343;28;20421;-74
2022/01/21 04:20:39;;;;;;;10.73;2.47;;;2.00;99.90;;;;;;5068401;28;20056;-75
2022/01/21 04:23:05;;;;;;;10.95;2.85;;;2.00;99.90;;;;;;5066683;28;20776;-74
2022/01/21 04:25:31;;;;;;;7.70;2.50;;;2.00;99.90;;;;;;5063403;28;20116;-75
2022/01/21 04:27:57;;;;;;;10.27;2.65;;;2.00;99.90;;;;;;5065169;28;20393;-75
2022/01/21 04:30:23;;;;;;;9.50;2.53;;;2.00;99.90;;;;;;5103715;28;20048;-75
2022/01/21 04:32:48;;;;;;;24.20;2.55;;;2.00;99.90;;;;;;5066764;28;20032;-75
2022/01/21 04:35:14;;;;;;;12.65;3.17;;;2.00;99.90;;;;;;5068026;28;20400;-75
2022/01/21 04:37:47;;;;;;;8.40;2.15;;;1.90;99.90;;;;;;5067468;28;20040;-75
2022/01/21 04:40:16;;;;;;;7.65;2.97;;;1.90;99.90;;;;;;5057659;28;20044;-75
2022/01/21 04:48:11;;;;;;;12.77;2.55;;;1.90;99.90;;;;;;5061782;28;20052;-75
2022/01/21 04:50:54;;;;;;;11.10;2.67;;;1.90;99.90;;;;;;5067736;28;20404;-75
2022/01/21 04:53:20;;;;;;;11.38;2.80;;;1.90;99.90;;;;;;5065309;28;20056;-75
2022/01/21 04:55:46;;;;;;;8.63;2.50;;;1.90;99.90;;;;;;5070651;28;20040;-75
2022/01/21 04:58:13;;;;;;;8.43;2.92;;;1.90;99.90;;;;;;5060262;28;20055;-75
2022/01/21 05:00:39;;;;;;;14.23;3.33;;;1.90;99.90;;;;;;5067879;28;20082;-75
2022/01/21 05:03:04;;;;;;;16.10;3.08;;;1.80;99.90;;;;;;5066355;28;20500;-75
2022/01/21 05:05:30;;;;;;;13.00;3.75;;;1.90;99.90;;;;;;5093632;27;20521;-75
2022/01/21 05:07:59;;;;;;;11.32;2.72;;;1.80;99.90;;;;;;5098621;27;20052;-75
2022/01/21 05:10:27;;;;;;;14.35;2.45;;;1.80;99.90;;;;;;5056825;28;20044;-75
2022/01/21 05:12:54;;;;;;;13.67;3.03;;;1.80;99.90;;;;;;5067439;28;20052;-75
2022/01/21 05:18:15;;;;;;;13.60;3.30;;;1.80;99.90;;;;;;5024854;28;20167;-75
2022/01/21 05:20:40;;;;;;;12.60;2.90;;;1.70;99.90;;;;;;5068169;28;20187;-75
2022/01/21 05:23:06;;;;;;;10.30;3.10;;;1.70;99.90;;;;;;5064433;28;20107;-75
2022/01/21 05:25:32;;;;;;;13.68;2.83;;;1.70;99.90;;;;;;5079592;28;20406;-75
2022/01/21 05:27:59;;;;;;;15.10;3.17;;;1.70;99.90;;;;;;5058453;28;20037;-75
2022/01/21 05:30:25;;;;;;;22.40;3.58;;;1.70;99.90;;;;;;5099483;27;20140;-75
2022/01/21 05:32:51;;;;;;;9.50;2.85;;;1.70;99.90;;;;;;5064679;28;20122;-75
2022/01/21 05:35:17;;;;;;;15.27;3.30;;;1.60;99.90;;;;;;5059975;28;20518;-75
2022/01/21 05:37:43;;;;;;;12.75;4.10;;;1.60;99.90;;;;;;5067423;28;20512;-75
2022/01/21 05:40:16;;;;;;;12.45;3.85;;;1.60;99.90;;;;;;5063204;28;20036;-75
2022/01/21 05:42:43;;;;;;;22.58;4.70;;;1.60;99.90;;;;;;5062500;28;20494;-75
2022/01/21 05:47:35;;;;;;;17.30;3.92;;;1.60;99.90;;;;;;5068606;28;20086;-75
2022/01/21 05:50:02;;;;;;;18.08;4.00;;;1.60;99.90;;;;;;5067932;28;20047;-75
2022/01/21 05:52:39;;;;;;;28.33;4.80;;;1.60;99.90;;;;;;5065627;28;20119;-74
2022/01/21 05:55:05;;;;;;;16.25;3.40;;;1.60;99.90;;;;;;5064782;28;20048;-75
2022/01/21 05:57:31;;;;;;;17.17;4.93;;;1.50;99.90;;;;;;5059475;28;20062;-74
2022/01/21 05:59:58;;;;;;;14.68;4.28;;;1.50;99.90;;;;;;5101613;28;20123;-74
2022/01/21 06:02:23;;;;;;;23.67;4.15;;;1.50;99.90;;;;;;5064222;28;20041;-74
2022/01/21 06:04:50;;;;;;;14.68;3.70;;;1.50;99.90;;;;;;5090126;27;20053;-75
2022/01/21 06:07:17;;;;;;;9.32;3.00;;;1.50;99.90;;;;;;5066372;28;20048;-74
2022/01/21 06:09:44;;;;;;;23.58;4.45;;;1.50;99.90;;;;;;5064853;28;20048;-74
2022/01/21 06:12:10;;;;;;;19.35;4.38;;;1.50;99.90;;;;;;5066342;28;20560;-74
2022/01/21 06:14:37;;;;;;;23.17;4.28;;;1.50;99.90;;;;;;5060425;28;20434;-74
2022/01/21 06:17:03;;;;;;;10.48;3.90;;;1.50;99.90;;;;;;5068547;28;20044;-75
2022/01/21 06:19:29;;;;;;;32.65;4.38;;;1.50;99.90;;;;;;5065147;28;20049;-74
2022/01/21 06:21:55;;;;;;;23.55;4.65;;;1.60;99.90;;;;;;5058990;28;20094;-74
2022/01/21 06:24:20;;;;;;;23.15;5.18;;;1.60;99.90;;;;;;5099369;27;20059;-74
2022/01/21 06:26:46;;;;;;;21.58;4.20;;;1.60;99.90;;;;;;5060733;28;20048;-74
2022/01/21 06:29:12;;;;;;;24.77;4.80;;;1.60;99.90;;;;;;5062187;28;20033;-75
2022/01/21 06:31:37;;;;;;;24.00;5.30;;;1.60;99.90;;;;;;5058116;28;20036;-73
2022/01/21 06:34:03;;;;;;;28.98;5.72;;;1.60;99.90;;;;;;5074550;28;20141;-73
2022/01/21 06:36:29;;;;;;;22.25;4.45;;;1.60;99.90;;;;;;5064600;28;20119;-74
2022/01/21 06:38:55;;;;;;;22.05;4.32;;;1.60;99.90;;;;;;5059641;28;20048;-72
2022/01/21 06:41:20;;;;;;;13.27;3.63;;;1.70;99.90;;;;;;5064895;28;20118;-72
2022/01/21 06:43:46;;;;;;;15.63;4.75;;;1.70;99.90;;;;;;5064980;28;20560;-72
2022/01/21 06:46:12;;;;;;;19.40;5.28;;;1.70;99.90;;;;;;5066241;28;20175;-73
2022/01/21 06:48:39;;;;;;;17.80;4.80;;;1.70;99.90;;;;;;5065025;28;20040;-73
2022/01/21 06:51:05;;;;;;;26.23;4.22;;;1.70;99.90;;;;;;5067100;28;20044;-73
2022/01/21 06:53:30;;;;;;;22.02;4.97;;;1.70;99.90;;;;;;5064831;28;20041;-74
2022/01/21 06:55:56;;;;;;;22.42;4.57;;;1.80;99.90;;;;;;5100326;27;20074;-74
2022/01/21 06:58:22;;;;;;;11.23;3.15;;;1.80;99.90;;;;;;5063994;28;20047;-74
2022/01/21 07:00:47;;;;;;;24.98;5.55;;;1.80;99.90;;;;;;5064818;28;20044;-74
2022/01/21 07:03:13;;;;;;;17.33;4.32;;;1.70;99.90;;;;;;5066426;28;20049;-74
2022/01/21 07:05:39;;;;;;;35.42;4.43;;;1.80;99.90;;;;;;5062154;28;20501;-74
2022/01/21 07:08:05;;;;;;;23.95;4.45;;;1.80;99.90;;;;;;5098273;28;20079;-75
2022/01/21 07:10:31;;;;;;;21.65;4.70;;;1.80;99.90;;;;;;5060552;28;20458;-75
2022/01/21 07:12:57;;;;;;;14.20;4.57;;;1.70;99.90;;;;;;5060671;28;20508;-75
2022/01/21 07:15:24;;;;;;;26.40;4.72;;;1.70;99.90;;;;;;5067103;28;20110;-75
2022/01/21 07:17:52;;;;;;;20.60;4.57;;;1.70;99.90;;;;;;5064461;28;20049;-75
2022/01/21 07:20:19;;;;;;;22.45;4.22;;;1.70;99.90;;;;;;5063240;28;20103;-74
2022/01/21 07:22:45;;;;;;;19.15;4.28;;;1.70;99.90;;;;;;5056562;28;20048;-75
2022/01/21 07:25:13;;;;;;;9.82;3.10;;;1.70;99.90;;;;;;5089617;28;20098;-75
2022/01/21 07:27:38;;;;;;;12.38;3.75;;;1.70;99.90;;;;;;5047172;28;20055;-75
2022/01/21 07:30:05;;;;;;;12.65;3.60;;;1.70;99.90;;;;;;5063582;28;20059;-74
2022/01/21 07:32:31;;;;;;;13.88;3.72;;;1.70;99.90;;;;;;5064119;28;20129;-74
2022/01/21 07:34:56;;;;;;;28.08;5.38;;;1.60;99.90;;;;;;5063969;28;20048;-74
2022/01/21 07:37:22;;;;;;;16.75;5.18;;;1.60;99.90;;;;;;5058972;28;20404;-76
2022/01/21 07:39:48;;;;;;;24.98;4.20;;;1.60;99.90;;;;;;5063448;28;20052;-75
2022/01/21 07:42:13;;;;;;;19.92;4.30;;;1.50;99.90;;;;;;5064685;28;20047;-74
2022/01/21 07:44:39;;;;;;;24.23;4.57;;;1.50;99.90;;;;;;5064339;28;20048;-74
2022/01/21 07:47:05;;;;;;;10.00;3.53;;;1.50;99.90;;;;;;5060068;28;20041;-74
2022/01/21 07:49:31;;;;;;;19.90;4.45;;;1.50;99.90;;;;;;5067838;28;20465;-75
2022/01/21 07:51:57;;;;;;;14.18;3.20;;;1.50;99.90;;;;;;5066892;28;20048;-75
2022/01/21 07:54:23;;;;;;;15.95;3.53;;;1.40;99.90;;;;;;5100350;27;20055;-75
2022/01/21 07:56:48;;;;;;;20.35;4.28;;;1.40;99.90;;;;;;5061400;28;20041;-74
2022/01/21 07:59:17;;;;;;;14.38;3.55;;;1.40;99.90;;;;;;5107453;27;20040;-74
2022/01/21 08:01:43;;;;;;;16.58;4.60;;;1.40;99.90;;;;;;5065477;28;20069;-74
2022/01/21 08:04:10;;;;;;;12.98;4.10;;;1.40;99.90;;;;;;5062544;28;20119;-74
2022/01/21 08:06:36;;;;;;;13.40;4.32;;;1.40;99.90;;;;;;5069579;28;20059;-74
2022/01/21 08:09:04;;;;;;;22.10;5.20;;;1.40;99.90;;;;;;5063485;28;20044;-74
2022/01/21 08:11:29;;;;;;;14.73;4.05;;;1.40;99.90;;;;;;5102572;27;20032;-75
2022/01/21 08:13:55;;;;;;;25.38;3.83;;;1.40;99.90;;;;;;5067588;28;20059;-74
2022/01/21 08:16:21;;;;;;;18.08;4.05;;;1.40;99.90;;;;;;5065348;28;20724;-74
2022/01/21 08:18:47;;;;;;;10.07;4.03;;;1.40;99.90;;;;;;5068814;28;20056;-74
2022/01/21 08:21:18;;;;;;;27.17;5.20;;;1.40;99.90;;;;;;5064940;28;20055;-74
2022/01/21 08:23:46;;;;;;;18.80;4.45;;;1.40;99.90;;;;;;5062730;28;20056;-75
2022/01/21 08:26:12;;;;;;;30.85;4.85;;;1.40;99.90;;;;;;5067437;28;20049;-74
2022/01/21 08:28:37;;;;;;;16.73;4.07;;;1.40;99.90;;;;;;5069183;28;20045;-76
2022/01/21 08:31:03;;;;;;;22.63;4.82;;;1.40;99.90;;;;;;5063748;28;20167;-75
2022/01/21 08:33:29;;;;;;;20.70;5.65;;;1.40;99.90;;;;;;5066461;28;20081;-75
2022/01/21 08:35:54;;;;;;;16.65;4.68;;;1.40;99.90;;;;;;5065574;28;20041;-76
2022/01/21 08:38:21;;;;;;;17.10;4.57;;;1.50;99.90;;;;;;5069635;28;20890;-75
2022/01/21 08:40:48;;;;;;;17.25;3.92;;;1.50;99.90;;;;;;5098438;27;20044;-76
2022/01/21 08:43:17;;;;;;;22.50;5.10;;;1.60;99.90;;;;;;5066428;28;20056;-74
2022/01/21 08:45:43;;;;;;;24.95;5.05;;;1.60;99.90;;;;;;5072225;28;20072;-76
2022/01/21 08:48:10;;;;;;;36.03;6.57;;;1.60;99.90;;;;;;5070498;28;20129;-75
2022/01/21 08:50:36;;;;;;;20.73;6.93;;;1.70;99.90;;;;;;5068931;28;20090;-75
2022/01/21 08:53:35;;;;;;;23.40;7.32;;;1.70;99.90;;;;;;5069075;28;20135;-77
2022/01/21 08:55:53;;;;;;;31.48;7.65;;;1.80;99.90;;;;;;5068437;28;20083;-77
2022/01/21 08:58:18;;;;;;;24.20;7.00;;;1.80;99.90;;;;;;5070353;28;20159;-77
2022/01/21 09:00:45;;;;;;;26.83;8.13;;;1.90;99.90;;;;;;5067976;28;20044;-77
2022/01/21 09:03:10;;;;;;;22.73;7.72;;;2.00;99.90;;;;;;5068688;28;20048;-76
2022/01/21 09:05:36;;;;;;;23.48;9.00;;;2.10;99.90;;;;;;5066166;28;20044;-76
2022/01/21 09:08:03;;;;;;;34.20;8.88;;;2.20;99.90;;;;;;5067152;28;20047;-75
2022/01/21 09:10:28;;;;;;;31.23;9.57;;;2.30;99.90;;;;;;5064674;28;20049;-74
2022/01/21 09:12:54;;;;;;;23.95;8.23;;;2.30;99.90;;;;;;5068757;28;20059;-75
2022/01/21 09:15:25;;;;;;;26.45;7.85;;;2.40;99.90;;;;;;5068001;28;20412;-75
2022/01/21 09:17:51;;;;;;;21.45;6.63;;;2.40;99.90;;;;;;5068325;28;20167;-75
2022/01/21 09:20:16;;;;;;;41.60;8.73;;;2.40;99.90;;;;;;5067839;28;20119;-74
2022/01/21 09:22:43;;;;;;;36.10;7.57;;;2.50;99.90;;;;;;5067835;28;20501;-73
2022/01/21 09:25:09;;;;;;;25.58;6.35;;;2.50;99.90;;;;;;5068170;28;20037;-74
2022/01/21 09:27:35;;;;;;;30.45;7.57;;;2.60;99.90;;;;;;5066688;28;20048;-73
2022/01/21 09:30:05;;;;;;;28.88;7.45;;;2.60;99.90;;;;;;5068021;28;20458;-74
2022/01/21 09:32:32;;;;;;;27.95;6.90;;;2.70;99.90;;;;;;5066131;28;20058;-73
2022/01/21 09:34:58;;;;;;;30.33;6.55;;;2.70;99.90;;;;;;5069914;28;20052;-74
2022/01/21 09:37:24;;;;;;;23.13;7.72;;;2.70;99.90;;;;;;5067687;28;20044;-74
2022/01/21 09:39:50;;;;;;;31.17;8.95;;;2.70;99.90;;;;;;5068022;28;20041;-73
2022/01/21 09:42:16;;;;;;;26.10;8.85;;;2.70;99.90;;;;;;5067717;28;20181;-74
2022/01/21 09:44:44;;;;;;;32.78;8.73;;;2.70;99.90;;;;;;5066406;28;20048;-75
2022/01/21 09:47:14;;;;;;;20.63;8.60;;;2.70;99.90;;;;;;5068320;28;20567;-74
2022/01/21 09:49:42;;;;;;;22.25;8.32;;;2.80;99.90;;;;;;5066676;28;20070;-74
2022/01/21 09:52:11;;;;;;;39.97;8.77;;;2.80;99.90;;;;;;5068158;28;20049;-74
2022/01/21 09:54:39;;;;;;;27.02;8.35;;;2.80;99.90;;;;;;5067265;28;20045;-75
2022/01/21 09:57:06;;;;;;;17.23;5.72;;;2.80;99.90;;;;;;5066048;28;20051;-74
2022/01/21 09:59:35;;;;;;;33.00;8.60;;;2.90;99.90;;;;;;5068656;28;20040;-74
2022/01/21 10:02:04;;;;;;;25.52;6.65;;;2.90;99.90;;;;;;5066275;28;20052;-73
2022/01/21 10:04:39;;;;;;;31.52;7.45;;;2.90;99.90;;;;;;5068581;28;20048;-71
2022/01/21 10:07:05;;;;;;;23.83;7.47;;;3.00;99.90;;;;;;5069220;28;20055;-73
2022/01/21 10:09:31;;;;;;;18.05;6.40;;;3.00;99.90;;;;;;5066907;28;20044;-70
2022/01/21 10:11:59;;;;;;;27.73;7.25;;;3.00;99.90;;;;;;5066855;28;20040;-72
2022/01/21 10:14:27;;;;;;;28.17;6.25;;;3.10;99.90;;;;;;5067130;28;20075;-74
2022/01/21 10:16:54;;;;;;;34.83;6.50;;;3.20;99.90;;;;;;5068755;28;20666;-72
2022/01/21 10:19:31;;;;;;;31.90;6.75;;;3.20;99.90;;;;;;5066220;28;20041;-74
2022/01/21 10:22:05;;;;;;;24.80;6.35;;;3.30;99.90;;;;;;5065447;28;20077;-72
2022/01/21 10:24:32;;;;;;;35.60;7.20;;;3.30;99.90;;;;;;5066305;28;20040;-72
2022/01/21 10:27:00;;;;;;;17.37;6.30;;;3.30;99.90;;;;;;5066083;28;20087;-73
2022/01/21 10:29:39;;;;;;;20.33;6.05;;;3.30;99.90;;;;;;5069474;28;20127;-72
2022/01/21 10:32:06;;;;;;;;;;;3.30;99.90;;;;;;5065400;28;20067;-69
2022/01/21 10:34:40;;;;;;;26.77;5.93;;;3.40;99.90;;;;;;5099070;27;20369;-70
2022/01/21 10:37:29;;;;;;;32.10;7.07;;;3.40;99.90;;;;;;5066483;28;20714;-70
2022/01/21 10:40:01;;;;;;;37.95;6.80;;;3.50;99.90;;;;;;5065738;28;20865;-71
2022/01/21 10:42:28;;;;;;;14.25;5.95;;;3.50;99.90;;;;;;5068148;28;20055;-70
2022/01/21 10:44:55;;;;;;;20.92;6.28;;;3.50;99.90;;;;;;5049601;28;20047;-73
2022/01/21 10:47:27;;;;;;;18.45;6.22;;;3.60;99.90;;;;;;5065901;28;20064;-73
2022/01/21 10:50:20;;;;;;;20.85;5.35;;;3.60;99.90;;;;;;5066680;28;20045;-72
2022/01/21 10:52:54;;;;;;;27.38;6.13;;;3.70;99.90;;;;;;5062251;28;20056;-73
2022/01/21 10:55:32;;;;;;;21.60;5.45;;;3.70;99.90;;;;;;5066790;28;20089;-73
2022/01/21 10:58:12;;;;;;;22.42;6.03;;;3.80;99.90;;;;;;5066002;28;20070;-73
2022/01/21 11:01:01;;;;;;;24.67;5.50;;;3.80;99.90;;;;;;5098053;27;20843;-73
2022/01/21 11:03:31;;;;;;;21.13;5.10;;;3.80;99.90;;;;;;5099463;27;20902;-73
2022/01/21 11:06:16;;;;;;;19.13;5.47;;;3.90;99.90;;;;;;5063387;28;20090;-73
2022/01/21 11:08:42;;;;;;;15.90;4.50;;;3.90;99.90;;;;;;5064879;28;20056;-74
2022/01/21 11:11:08;;;;;;;20.38;4.97;;;3.90;99.90;;;;;;5065302;28;20056;-73
2022/01/21 11:13:37;;;;;;;16.58;4.72;;;3.90;99.90;;;;;;5064134;28;20052;-75
2022/01/21 11:16:15;;;;;;;25.40;5.45;;;4.00;99.90;;;;;;5065187;28;20044;-74
2022/01/21 11:18:53;;;;;;;18.73;5.23;;;3.90;99.90;;;;;;5064479;28;20463;-75
2022/01/21 11:21:21;;;;;;;15.70;4.10;;;3.90;99.90;;;;;;5067877;28;20055;-75
2022/01/21 11:23:48;;;;;;;32.22;5.82;;;4.00;99.90;;;;;;5096895;27;20056;-76
2022/01/21 11:26:16;;;;;;;29.90;6.70;;;4.00;99.90;;;;;;5065307;28;20078;-75
2022/01/21 11:28:49;;;;;;;26.95;6.35;;;4.00;99.90;;;;;;5064342;28;20060;-75
2022/01/21 11:31:20;;;;;;;18.33;5.32;;;4.10;99.90;;;;;;5062481;28;20168;-74
2022/01/21 11:33:46;;;;;;;38.10;7.47;;;4.10;99.90;;;;;;5065140;28;20048;-75
2022/01/21 11:36:14;;;;;;;28.58;6.40;;;4.20;99.90;;;;;;5064222;28;20054;-74
2022/01/21 11:38:44;;;;;;;31.80;8.35;;;4.20;99.90;;;;;;5065531;28;20056;-74
2022/01/21 11:41:12;;;;;;;18.42;6.63;;;4.30;99.90;;;;;;5080778;28;20040;-75
2022/01/21 11:43:45;;;;;;;31.67;6.68;;;4.40;99.90;;;;;;5066783;28;20052;-74
2022/01/21 11:48:58;;;;;;;31.33;6.97;;;4.60;99.90;;;;;;5064207;28;20048;-73
2022/01/21 11:51:31;;;;;;;34.20;7.03;;;4.70;99.90;;;;;;5066105;28;20089;-73
2022/01/21 11:54:25;;;;;;;26.10;8.13;;;4.80;99.90;;;;;;5065823;28;20053;-73
2022/01/21 11:57:01;;;;;;;27.95;6.28;;;4.80;99.90;;;;;;5064055;28;20049;-74
2022/01/21 12:02:24;;;;;;;31.55;7.45;;;4.90;99.90;;;;;;5057958;28;20163;-73
2022/01/21 12:04:55;;;;;;;31.88;7.38;;;5.00;99.90;;;;;;5063632;28;20044;-73
2022/01/21 12:07:33;;;;;;;24.52;7.25;;;5.00;99.90;;;;;;5065717;28;20403;-74
2022/01/21 12:10:06;;;;;;;25.92;7.85;;;5.10;99.90;;;;;;5064224;28;20060;-74
2022/01/21 12:20:49;;;;;;;29.77;8.00;;;5.20;99.90;;;;;;5065611;28;20052;-74
2022/01/21 12:23:21;;;;;;;34.28;6.65;;;5.20;99.90;;;;;;5062335;28;20048;-73
2022/01/21 12:26:09;;;;;;;30.48;6.30;;;5.20;99.90;;;;;;5064906;28;20959;-74
2022/01/21 12:28:39;;;;;;;37.30;6.93;;;5.30;99.90;;;;;;5064141;28;20399;-74
2022/01/21 12:31:06;;;;;;;44.80;8.52;;;5.30;99.90;;;;;;5064478;28;20051;-74
2022/01/21 12:34:01;;;;;;;19.23;6.82;;;5.30;99.90;;;;;;5098912;28;20059;-74
2022/01/21 12:36:34;;;;;;;27.35;7.25;;;5.40;99.90;;;;;;5064946;28;20132;-74
2022/01/21 12:41:29;;;;;;;21.05;6.30;;;5.50;99.90;;;;;;5068260;28;20070;-74
2022/01/21 12:44:09;;;;;;;21.75;6.03;;;5.60;99.90;;;;;;5066451;28;20143;-74
2022/01/21 12:46:36;;;;;;;11.27;4.68;;;5.60;99.90;;;;;;5066797;28;20155;-74
2022/01/21 12:49:24;;;;;;;16.08;5.18;;;5.60;99.90;;;;;;5066699;28;20056;-72
2022/01/21 12:52:30;;;;;;;16.70;5.35;;;5.70;99.90;;;;;;5069182;28;20067;-73
2022/01/21 12:57:32;;;;;;;23.88;5.18;;;5.70;99.90;;;;;;5065850;28;20195;-73
2022/01/21 13:00:00;;;;;;;20.77;4.70;;;5.70;99.90;;;;;;5064375;28;20043;-73
2022/01/21 13:02:28;;;;;;;13.27;5.47;;;5.80;99.90;;;;;;5066850;28;20148;-73
2022/01/21 13:05:17;;;;;;;25.75;4.80;;;5.80;99.90;;;;;;5066325;28;20052;-74
2022/01/21 13:07:58;;;;;;;22.77;4.55;;;5.80;99.90;;;;;;5066029;28;20124;-73
2022/01/21 13:10:28;;;;;;;20.63;4.38;;;5.80;99.90;;;;;;5061207;28;20119;-74
2022/01/21 13:15:37;;;;;;;18.33;4.38;;;5.80;99.90;;;;;;5067254;28;20048;-74
2022/01/21 13:18:07;;;;;;;18.92;4.03;;;5.80;99.90;;;;;;5061745;28;20055;-73
2022/01/21 13:20:35;;;;;;;20.10;4.40;;;5.90;99.90;;;;;;5059696;28;20509;-74
2022/01/21 13:23:01;;;;;;;10.73;3.97;;;5.90;99.90;;;;;;5062804;28;20048;-73
2022/01/21 13:25:28;;;;;;;21.00;4.93;;;5.90;99.90;;;;;;5065939;28;20040;-75
2022/01/21 13:27:58;;;;;;;20.10;4.97;;;5.90;99.90;;;;;;5065053;28;20080;-74
2022/01/21 13:30:27;;;;;;;24.35;4.55;;;5.90;99.90;;;;;;5055460;28;20132;-75
2022/01/21 13:33:12;;;;;;;13.60;3.55;;;6.00;99.90;;;;;;5064851;28;20063;-74
2022/01/21 13:35:47;;;;;;;28.05;4.65;;;6.00;99.90;;;;;;5072957;28;20061;-74
2022/01/21 13:38:18;;;;;;;14.25;3.58;;;6.00;99.90;;;;;;5067837;28;20053;-74
2022/01/21 13:40:50;;;;;;;17.00;4.28;;;6.10;99.90;;;;;;5064101;28;20052;-73
2022/01/21 13:43:21;;;;;;;15.68;5.25;;;6.10;99.90;;;;;;5082988;28;20049;-73
2022/01/21 13:46:10;;;;;;;18.13;4.95;;;6.10;99.90;;;;;;5099469;28;20087;-75
2022/01/21 13:48:37;;;;;;;19.55;4.53;;;6.20;99.90;;;;;;5062681;28;20139;-74
2022/01/21 13:51:07;;;;;;;20.00;5.10;;;6.10;99.90;;;;;;5061716;28;20048;-74
2022/01/21 13:53:33;;;;;;;20.60;5.10;;;6.20;99.90;;;;;;5068580;28;20041;-73
2022/01/21 13:56:02;;;;;;;16.77;4.82;;;6.20;99.90;;;;;;5065578;28;20040;-73
2022/01/21 13:58:31;;;;;;;14.45;4.93;;;6.20;99.90;;;;;;5068430;28;20580;-73
2022/01/21 14:00:56;;;;;;;21.27;5.13;;;6.20;99.90;;;;;;5062110;28;20040;-74
2022/01/21 14:03:25;;;;;;;25.73;4.72;;;6.30;99.90;;;;;;5068754;28;20051;-74
2022/01/21 14:05:59;;;;;;;19.05;4.32;;;6.20;99.90;;;;;;5049303;28;20040;-74
2022/01/21 14:08:37;;;;;;;17.60;5.35;;;6.20;99.90;;;;;;5061572;28;20090;-74